Aérodrome :
LOGIN :

S'inscrire | Disclaimer

   EN    FR    IT 

 










Légende :    VFR   VFR Marginal   IFR   IFR Intensif   IFR Très Intensif
Visi : 
Plafond : 
>= 8 km
>= 3000ft
5 à 8 km
1000 à 3000 ft
1500m à 5 km
500 à 1000 ft
800 à 1500m
200 à 500 ft
< 800m
< 200 ft
Symboles :   Orages  Brouillard  Fortes neiges  Fortes précipitations  Vent > 20 kt
SIGMETs :   Divers  Orages  Givrage  Turbulence  Onde Orograph.  Cendres Volcan.







- Altitude de l'aérodrome : 170 ft
- Code IATA : BGO


ENBR - Bergen , Flesland

DERNIER METAR :
  • 181450Z 15014KT 9999 -SHRA FEW015 SCT020CB BKN035 15/11 Q0997 TEMPO 17018G28KT TSRA SCT012 BKN020CB RMK WIND 1200FT 14021G31KT

METARs EXPIRÉS :
  • 181420Z 14010KT 9999 SHRA FEW015 SCT020CB BKN035 16/10 Q0997 RETS RMK WIND 1200FT 23010KT
  • 181350Z 15011KT 9999 VCTS FEW020CB SCT050 BKN070 15/10 Q0997 TEMPO17018G28KT TSRA SCT012 BKN020CB RMK WIND 1200FT 15019KT
  • 181320Z 15013G23KT 9999 FEW020CB SCT050 BKN060 16/09 Q0997 TEMPO TSRA SCT012 BKN020CB RMK WIND 1200FT 16024G34KT
  • 181250Z 17019KT 9999 VCSH FEW020CB SCT050 SCT055 18/10 Q0997 TEMPO17018G28KT TSRA SCT012 BKN020CB RMK WIND 1200FT 16028G39KT
  • 181220Z 17022KT 9999 FEW020CB FEW025 SCT050 18/10 Q0997 TEMPO TSRA SCT012 BKN020CB RMK WIND 1200FT 16025KT

TAF TAF ENBR
Valide du 18 à 12h jusqu'au 19 à 12h UTC


1812/1912 15012KT 9999 SCT020TCU
TEMPO 1812/1912 17018G28KT SHRA SCT012 BKN020CB
PROB30
TEMPO 1812/1912 4000 TSRA
Pas de NOTAMs connus pour ce terrain.



MET'MAP, la Météo Aéronautique d'un coup d'oeil ! - Copyright ORBIFLY Décembre 2007 - Disclaimer

ORBIFLY MET'MAP TEAM :

Programmation & Développement : Alexandra Zaïnal
Conception & Développement : Baudouin d'Aumeries
Co-Programmation & Développement : Marc-Olivier Méhu
Soutien technique & logistique : Manuel Goepfert

Contact : metmap@orbifly.com




SOURCES & CREDITS :

   NOAA